TAF KSAC
KSAC 081725Z 0818/0918 13004KT 1SM BR OVC005 TEMPO 0818/0822 3SM BR OVC009 FM082200 18005KT 5SM BR OVC015 FM090800 18004KT 4SM -RA BR OVC010=
METAR KSAC
WC KSAC
WS KSAC
WV KSAC